Observations for BRISTOL LULSGATE, United Kingdom (EGGD)

EGGD 200620Z AUTO 07010KT 9999 NCD 10/06 Q1031  
EGGD 200550Z AUTO 07009KT 9999 NCD 09/06 Q1031  
EGGD 200520Z AUTO 06010KT 9999 NCD 10/06 Q1031  
EGGD 200450Z AUTO 06009KT 9999 NCD 10/06 Q1031  
EGGD 200420Z AUTO 06009KT 9999 NCD 10/06 Q1031  
EGGD 200350Z AUTO 06008KT 9999 NCD 11/06 Q1031  
EGGD 200320Z AUTO 05008KT 9999 NCD 11/06 Q1031  
EGGD 200250Z AUTO 05009KT 9999 NCD 11/07 Q1031  
EGGD 200220Z AUTO 05008KT 9999 NCD 10/06 Q1031  
EGGD 200150Z AUTO 06008KT 9999 NCD 10/06 Q1031  
EGGD 200120Z AUTO 06007KT 9999 NCD 09/06 Q1031  
EGGD 200050Z AUTO 08006KT 9999 NCD 09/06 Q1031  
EGGD 200020Z AUTO 09008KT 9999 NCD 10/06 Q1031  
EGGD 192350Z AUTO 08004KT 9999 NCD 11/06 Q1031  
EGGD 192320Z AUTO 05007KT 9999 NCD 14/07 Q1031  
EGGD 192250Z AUTO 06005KT 9999 NCD 14/07 Q1031  
EGGD 192220Z AUTO 09004KT 9999 NCD 14/06 Q1031  
EGGD 192150Z AUTO 04004KT 020V080 9999 NCD 15/06 Q1031  
EGGD 192120Z AUTO 06004KT 9999 NCD 15/06 Q1030  
EGGD 192050Z AUTO 05006KT 9999 NCD 16/06 Q1030  
EGGD 192020Z AUTO 04004KT 9999 NCD 17/06 Q1030  
EGGD 191950Z AUTO 02004KT 9999 NCD 16/07 Q1030  
EGGD 191920Z AUTO 01005KT 9999 NCD 17/08 Q1030  
EGGD 191850Z AUTO 36004KT 9999 NCD 18/07 Q1030  
EGGD 191820Z AUTO 05006KT 9999 NCD 19/06 Q1029  
EGGD 191750Z AUTO 06005KT 9999 NCD 19/07 Q1029  
EGGD 191720Z AUTO 07008KT 9999 NCD 20/07 Q1029  
EGGD 191650Z AUTO 07007KT 9999 NCD 20/07 Q1029  
EGGD 191620Z AUTO 07008KT 9999 NCD 21/07 Q1028  
EGGD 191550Z AUTO 08006KT 9999 NCD 21/06 Q1028  
EGGD 191520Z AUTO 07007KT 040V110 9999 NCD 21/07 Q1028  
EGGD 191450Z AUTO 07006KT 030V110 9999 NCD 21/07 Q1028  
EGGD 191420Z AUTO 08007KT 030V120 9999 NCD 21/08 Q1029  
EGGD 191350Z AUTO 05006KT 9999 NCD 21/09 Q1029  
EGGD 191320Z AUTO 08007KT 030V110 9999 NCD 21/09 Q1029  
EGGD 191250Z AUTO 05008KT 360V090 9999 NCD 20/09 Q1029  
EGGD 191220Z AUTO 05008KT 9999 NCD 19/10 Q1029  
EGGD 191150Z AUTO 06009KT 9999 NCD 18/09 Q1029  
EGGD 191120Z AUTO 06010KT 030V090 9999 NCD 17/09 Q1029  
EGGD 191050Z AUTO 05009KT 9999 NCD 17/09 Q1029  
EGGD 191020Z AUTO 05008KT 9999 NCD 16/09 Q1029  
EGGD 190950Z AUTO 04009KT 9999 NCD 15/08 Q1029  
EGGD 190920Z AUTO 05009KT 9999 NCD 14/08 Q1028  
EGGD 190850Z AUTO 05007KT 9999 NCD 13/07 Q1028  
EGGD 190820Z AUTO 06010KT 9999 NCD 12/07 Q1028  
EGGD 190750Z AUTO 06011KT 9999 NCD 11/07 Q1028  
EGGD 190720Z AUTO 06011KT 9999 NCD 10/06 Q1028  
EGGD 190650Z AUTO 06011KT 9999 NCD 10/06 Q1027  
EGGD 190620Z AUTO 06011KT 9999 NCD 10/05 Q1027  
EGGD 190550Z AUTO 06011KT 9999 NCD 09/05 Q1027